createdAt,value
2022-09-10T00:01:26.582Z,99.73
2022-09-10T00:03:56.639Z,98.85
2022-09-10T00:06:27.632Z,100.00
2022-09-10T00:08:57.588Z,100.00
2022-09-10T00:11:26.989Z,100.00
2022-09-10T00:13:55.106Z,99.79
2022-09-10T00:16:23.510Z,99.40
2022-09-10T00:18:51.667Z,99.75
2022-09-10T00:21:21.727Z,99.96
2022-09-10T00:23:51.404Z,99.11
2022-09-10T00:26:21.845Z,100.00
2022-09-10T00:28:51.558Z,100.00
2022-09-10T00:31:21.852Z,100.00
2022-09-10T00:33:51.115Z,100.00
2022-09-10T00:36:21.654Z,100.00
2022-09-10T00:38:51.840Z,100.00
2022-09-10T00:41:20.922Z,100.00
2022-09-10T00:43:54.803Z,100.00
2022-09-10T00:46:37.908Z,100.00
2022-09-10T00:49:14.661Z,100.00
2022-09-10T00:51:44.084Z,100.00
2022-09-10T00:54:15.343Z,100.00
2022-09-10T00:56:45.269Z,100.00
2022-09-10T00:59:18.831Z,100.00
2022-09-10T01:01:47.346Z,100.00
2022-09-10T01:04:15.638Z,100.00
2022-09-10T01:06:46.356Z,100.00
2022-09-10T01:09:16.166Z,100.00
2022-09-10T01:11:58.841Z,100.00
2022-09-10T01:14:44.855Z,97.97
2022-09-10T01:17:24.457Z,96.25
2022-09-10T01:20:36.103Z,94.52
2022-09-10T01:23:34.228Z,95.63
2022-09-10T01:26:14.120Z,94.42
2022-09-10T01:28:48.905Z,93.59
2022-09-10T01:31:24.959Z,93.48
2022-09-10T01:33:59.341Z,92.76
2022-09-10T01:36:32.635Z,92.81
2022-09-10T01:39:01.987Z,92.02
2022-09-10T01:41:29.978Z,91.50
2022-09-10T01:44:09.959Z,93.90
2022-09-10T01:46:51.955Z,95.95
2022-09-10T01:49:31.234Z,96.81
2022-09-10T01:52:15.243Z,97.90
2022-09-10T01:54:59.545Z,99.61
2022-09-10T01:57:35.827Z,97.17
2022-09-10T02:00:12.395Z,95.11
2022-09-10T02:02:49.424Z,91.94
2022-09-10T02:05:20.916Z,91.87
2022-09-10T02:07:59.677Z,91.79
2022-09-10T02:10:28.010Z,92.16
2022-09-10T02:12:56.655Z,92.50
2022-09-10T02:15:43.704Z,91.33
2022-09-10T02:18:20.745Z,91.85
2022-09-10T02:20:51.889Z,91.38
2022-09-10T02:23:23.531Z,91.24
2022-09-10T02:25:54.152Z,90.97
2022-09-10T02:28:28.620Z,91.32
2022-09-10T02:30:58.646Z,90.67
2022-09-10T02:33:27.803Z,90.43
2022-09-10T02:35:56.953Z,89.77
2022-09-10T02:38:25.161Z,90.37
2022-09-10T02:40:59.263Z,90.55
2022-09-10T02:43:27.437Z,89.41
2022-09-10T02:46:07.377Z,89.57
2022-09-10T02:48:38.786Z,89.00
2022-09-10T02:51:08.853Z,90.08
2022-09-10T02:53:38.528Z,90.19
2022-09-10T02:56:08.774Z,90.28
2022-09-10T02:58:38.146Z,93.38
2022-09-10T03:01:10.590Z,94.07
2022-09-10T03:03:40.286Z,92.80
2022-09-10T03:06:09.271Z,87.79
2022-09-10T03:08:37.462Z,87.65
2022-09-10T03:11:07.181Z,88.71
2022-09-10T03:13:35.558Z,85.14
2022-09-10T03:16:04.693Z,84.61
2022-09-10T03:18:36.373Z,86.09
2022-09-10T03:21:13.173Z,87.56
2022-09-10T03:23:41.579Z,87.32
2022-09-10T03:26:10.836Z,90.74
2022-09-10T03:28:39.467Z,90.08
2022-09-10T03:31:09.721Z,87.03
2022-09-10T03:33:46.105Z,84.48
2022-09-10T03:36:15.345Z,82.62
2022-09-10T03:38:45.197Z,79.39
2022-09-10T03:41:14.410Z,79.64
2022-09-10T03:43:42.521Z,79.98
2022-09-10T03:46:12.349Z,80.22
2022-09-10T03:48:44.872Z,80.25
2022-09-10T03:51:13.067Z,80.25
2022-09-10T03:53:41.209Z,79.68
2022-09-10T03:56:11.507Z,83.69
2022-09-10T03:58:41.124Z,84.12
2022-09-10T04:01:10.832Z,82.76
2022-09-10T04:03:44.307Z,80.86
2022-09-10T04:06:12.894Z,80.58
2022-09-10T04:08:43.389Z,78.63
2022-09-10T04:11:13.794Z,78.61
2022-09-10T04:13:42.969Z,78.54
2022-09-10T04:16:13.024Z,78.96
2022-09-10T04:18:41.954Z,79.46
2022-09-10T04:21:11.916Z,80.36
2022-09-10T04:23:42.355Z,80.09
2022-09-10T04:26:15.103Z,80.68
2022-09-10T04:28:45.408Z,79.84
2022-09-10T04:31:14.540Z,80.39
2022-09-10T04:33:42.648Z,80.07
2022-09-10T04:36:14.254Z,79.26
2022-09-10T04:38:43.500Z,79.62
2022-09-10T04:41:15.550Z,79.51
2022-09-10T04:43:44.754Z,79.94
2022-09-10T04:46:13.014Z,79.52
2022-09-10T04:48:43.623Z,79.79
2022-09-10T04:51:18.108Z,79.48
2022-09-10T04:53:52.767Z,80.72
2022-09-10T04:56:23.734Z,81.23
2022-09-10T04:58:51.844Z,79.81
2022-09-10T05:01:20.711Z,80.28
2022-09-10T05:03:52.464Z,79.75
2022-09-10T05:06:23.335Z,80.27
2022-09-10T05:08:51.833Z,80.63
2022-09-10T05:11:20.629Z,80.16
2022-09-10T05:13:49.455Z,81.10
2022-09-10T05:16:22.135Z,84.65
2022-09-10T05:18:50.349Z,82.37
2022-09-10T05:21:19.314Z,80.47
2022-09-10T05:23:49.065Z,79.42
2022-09-10T05:26:17.180Z,79.02
2022-09-10T05:28:45.300Z,78.06
2022-09-10T05:31:17.514Z,77.94
2022-09-10T05:33:46.710Z,77.49
2022-09-10T05:36:15.066Z,76.69
2022-09-10T05:38:45.581Z,77.82
2022-09-10T05:41:15.496Z,77.43
2022-09-10T05:43:50.035Z,75.69
2022-09-10T05:46:18.349Z,75.06
2022-09-10T05:48:50.528Z,75.48
2022-09-10T05:51:19.910Z,74.29
2022-09-10T05:53:50.027Z,74.25
2022-09-10T05:56:21.294Z,74.05
2022-09-10T05:58:49.964Z,74.11
2022-09-10T06:01:19.332Z,74.03
2022-09-10T06:03:47.584Z,74.56
2022-09-10T06:06:15.886Z,74.26
2022-09-10T06:08:52.478Z,74.08
2022-09-10T06:11:30.367Z,72.20
2022-09-10T06:13:58.566Z,72.51
2022-09-10T06:16:27.729Z,72.35
2022-09-10T06:18:57.362Z,71.51
2022-09-10T06:21:28.398Z,72.23
2022-09-10T06:23:58.401Z,71.23
2022-09-10T06:26:31.586Z,71.47
2022-09-10T06:29:05.188Z,72.58
2022-09-10T06:31:35.316Z,72.42
2022-09-10T06:34:03.935Z,72.46
2022-09-10T06:36:34.038Z,73.11
2022-09-10T06:39:03.587Z,74.97
2022-09-10T06:41:45.848Z,74.33
2022-09-10T06:44:32.950Z,73.71
2022-09-10T06:50:01.971Z,73.91
2022-09-10T06:52:32.675Z,73.80
2022-09-10T06:55:05.751Z,72.47
2022-09-10T06:57:43.850Z,73.38
2022-09-10T07:00:14.698Z,72.92
2022-09-10T07:02:46.019Z,73.76
2022-09-10T07:05:14.346Z,74.06
2022-09-10T07:07:43.463Z,74.21
2022-09-10T07:10:12.086Z,74.53
2022-09-10T07:12:41.856Z,75.84
2022-09-10T07:15:12.051Z,74.75
2022-09-10T07:17:40.416Z,73.14
2022-09-10T07:20:10.219Z,72.18
2022-09-10T07:22:45.963Z,72.41
2022-09-10T07:25:16.424Z,74.89
2022-09-10T07:28:04.697Z,76.39
2022-09-10T07:30:35.941Z,77.82
2022-09-10T07:33:04.311Z,81.30
2022-09-10T07:35:35.094Z,79.37
2022-09-10T07:38:03.610Z,80.82
2022-09-10T07:40:31.754Z,80.34
2022-09-10T07:43:00.269Z,81.40
2022-09-10T07:45:31.034Z,82.69
2022-09-10T07:48:02.860Z,84.95
2022-09-10T07:50:36.395Z,87.36
2022-09-10T07:53:05.019Z,86.14
2022-09-10T07:55:33.126Z,85.44
2022-09-10T07:58:01.837Z,85.70
2022-09-10T08:00:33.336Z,83.49
2022-09-10T08:03:06.691Z,81.38
2022-09-10T08:05:38.177Z,82.76
2022-09-10T08:08:07.167Z,85.71
2022-09-10T08:10:36.505Z,84.50
2022-09-10T08:13:04.542Z,84.92
2022-09-10T08:15:36.020Z,83.67
2022-09-10T08:18:04.917Z,83.08
2022-09-10T08:20:33.291Z,80.99
2022-09-10T08:23:02.335Z,81.22
2022-09-10T08:25:31.033Z,79.47
2022-09-10T08:27:59.065Z,77.36
2022-09-10T08:30:27.723Z,79.97
2022-09-10T08:32:57.634Z,75.40
2022-09-10T08:35:25.661Z,73.19
2022-09-10T08:37:54.562Z,74.37
2022-09-10T08:40:23.746Z,73.47
2022-09-10T08:42:53.651Z,72.13
2022-09-10T08:45:29.220Z,73.80
2022-09-10T08:48:04.228Z,74.78
2022-09-10T08:50:40.726Z,73.01
2022-09-10T08:53:25.925Z,73.24
2022-09-10T08:55:58.450Z,74.62
2022-09-10T08:58:31.000Z,74.26
2022-09-10T09:01:05.035Z,72.51
2022-09-10T09:03:39.166Z,71.71
2022-09-10T09:06:16.142Z,71.58
2022-09-10T09:08:48.413Z,73.69
2022-09-10T09:11:42.573Z,71.56
2022-09-10T09:14:52.369Z,68.80
2022-09-10T09:17:34.495Z,68.55
2022-09-10T09:20:15.435Z,69.96
2022-09-10T09:22:52.599Z,71.29
2022-09-10T09:25:31.944Z,69.90
2022-09-10T09:28:01.640Z,69.68
2022-09-10T09:30:42.094Z,65.85
2022-09-10T09:33:16.382Z,64.69
2022-09-10T09:35:52.595Z,64.14
2022-09-10T09:38:26.183Z,63.57
2022-09-10T09:41:00.023Z,64.90
2022-09-10T09:43:46.919Z,64.77
2022-09-10T09:46:17.812Z,63.56
2022-09-10T09:48:53.507Z,62.34
2022-09-10T09:51:26.145Z,63.27
2022-09-10T09:54:25.874Z,62.59
2022-09-10T09:56:50.925Z,61.65
2022-09-10T09:59:29.938Z,61.11
2022-09-10T10:02:06.398Z,62.19
2022-09-10T10:04:37.984Z,60.44
2022-09-10T10:07:12.653Z,59.14
2022-09-10T10:09:43.989Z,59.22
2022-09-10T10:12:21.014Z,58.85
2022-09-10T10:14:49.931Z,59.11
2022-09-10T10:17:39.271Z,58.40
2022-09-10T10:20:12.887Z,56.65
2022-09-10T10:22:43.376Z,55.85
2022-09-10T10:25:34.534Z,57.06
2022-09-10T10:28:03.106Z,57.21
2022-09-10T10:30:33.148Z,55.01
2022-09-10T10:33:04.686Z,54.24
2022-09-10T10:35:37.588Z,54.51
2022-09-10T10:38:26.128Z,50.44
2022-09-10T10:41:08.136Z,50.04
2022-09-10T10:43:48.508Z,48.94
2022-09-10T10:46:21.585Z,48.76
2022-09-10T10:49:03.837Z,49.10
2022-09-10T10:51:44.651Z,48.79
2022-09-10T10:54:37.907Z,48.82
2022-09-10T10:57:16.826Z,46.21
2022-09-10T10:59:55.610Z,45.05
2022-09-10T11:02:34.837Z,45.36
2022-09-10T11:05:16.927Z,45.70
2022-09-10T11:07:50.138Z,44.88
2022-09-10T11:10:27.001Z,44.05
2022-09-10T11:13:04.656Z,43.77
2022-09-10T11:15:38.166Z,44.33
2022-09-10T11:18:20.207Z,43.35
2022-09-10T11:20:58.231Z,44.28
2022-09-10T11:23:31.463Z,42.97
2022-09-10T11:26:05.873Z,42.65
2022-09-10T11:28:38.731Z,42.18
2022-09-10T11:31:12.629Z,42.33
2022-09-10T11:33:49.583Z,43.10
2022-09-10T11:36:26.245Z,43.37
2022-09-10T11:39:03.912Z,42.60
2022-09-10T11:41:36.873Z,42.19
2022-09-10T11:44:18.015Z,41.01
2022-09-10T11:46:51.413Z,41.92
2022-09-10T11:49:22.592Z,41.88
2022-09-10T11:51:51.513Z,41.31
2022-09-10T11:54:30.997Z,40.75
2022-09-10T11:57:06.622Z,41.05
2022-09-10T11:59:52.311Z,41.02
2022-09-10T12:02:47.462Z,40.77
2022-09-10T12:05:26.155Z,40.04
2022-09-10T12:08:00.004Z,39.84
2022-09-10T12:10:33.566Z,39.89
2022-09-10T12:13:08.788Z,38.94
2022-09-10T12:15:37.896Z,39.02
2022-09-10T12:18:13.672Z,38.09
2022-09-10T12:20:48.711Z,38.35
2022-09-10T12:23:19.236Z,37.92
2022-09-10T12:25:58.722Z,37.32
2022-09-10T12:29:12.375Z,36.39
2022-09-10T12:32:29.671Z,37.01
2022-09-10T12:35:46.625Z,37.08
2022-09-10T12:38:55.475Z,36.18
2022-09-10T12:41:55.965Z,36.50
2022-09-10T12:44:45.146Z,36.03
2022-09-10T12:47:40.111Z,35.36
2022-09-10T12:50:23.019Z,35.36
2022-09-10T12:53:23.375Z,35.01
2022-09-10T12:56:02.157Z,34.00
2022-09-10T12:58:54.344Z,34.45
2022-09-10T13:01:39.202Z,34.50
2022-09-10T13:04:24.587Z,33.57
2022-09-10T13:06:55.535Z,34.43
2022-09-10T13:09:27.527Z,34.07
2022-09-10T13:12:00.082Z,33.31
2022-09-10T13:14:31.698Z,33.79
2022-09-10T13:16:59.846Z,34.35
2022-09-10T13:19:52.089Z,34.04
2022-09-10T13:22:59.999Z,33.65
2022-09-10T13:25:36.826Z,32.59
2022-09-10T13:28:43.851Z,32.39
2022-09-10T13:31:19.376Z,32.22
2022-09-10T13:34:09.423Z,31.89
2022-09-10T13:36:52.893Z,32.39
2022-09-10T13:39:57.360Z,32.60
2022-09-10T13:42:39.243Z,33.17
2022-09-10T13:45:23.603Z,33.83
2022-09-10T13:47:58.762Z,34.33
2022-09-10T13:50:29.454Z,34.51
2022-09-10T13:53:01.678Z,34.07
2022-09-10T13:55:32.021Z,34.96
2022-09-10T13:58:05.485Z,34.24
2022-09-10T14:00:35.154Z,34.29
2022-09-10T14:03:03.341Z,32.93
2022-09-10T14:05:35.239Z,33.50
2022-09-10T14:08:09.009Z,33.00
2022-09-10T14:10:49.956Z,32.63
2022-09-10T14:13:24.240Z,32.86
2022-09-10T14:15:54.543Z,32.11
2022-09-10T14:18:32.688Z,31.35
2022-09-10T14:21:01.476Z,30.85
2022-09-10T14:23:31.169Z,30.55
2022-09-10T14:26:19.870Z,30.62
2022-09-10T14:28:52.879Z,31.00
2022-09-10T14:31:28.262Z,30.17
2022-09-10T14:33:57.545Z,29.95
2022-09-10T14:36:34.247Z,30.61
2022-09-10T14:39:07.394Z,30.44
2022-09-10T14:41:36.893Z,30.42
2022-09-10T14:44:29.725Z,29.94
2022-09-10T14:47:00.320Z,30.16
2022-09-10T14:49:30.474Z,29.40
2022-09-10T14:52:00.098Z,29.89
2022-09-10T14:54:31.000Z,30.21
2022-09-10T14:57:02.612Z,29.91
2022-09-10T14:59:33.409Z,29.83
2022-09-10T15:02:03.601Z,29.58
2022-09-10T15:04:31.781Z,29.40
2022-09-10T15:07:02.749Z,29.42
2022-09-10T15:09:32.185Z,30.07
2022-09-10T15:12:05.146Z,31.19
2022-09-10T15:14:33.684Z,31.77
2022-09-10T15:17:01.861Z,31.73
2022-09-10T15:19:29.886Z,31.25
2022-09-10T15:21:58.881Z,31.24
2022-09-10T15:24:28.367Z,31.73
2022-09-10T15:26:57.925Z,32.58
2022-09-10T15:29:26.216Z,33.49
2022-09-10T15:31:59.407Z,33.92
2022-09-10T15:34:27.404Z,33.95
2022-09-10T15:36:55.406Z,34.81
2022-09-10T15:39:23.435Z,35.16
2022-09-10T15:41:51.447Z,35.43
2022-09-10T15:44:23.049Z,35.39
2022-09-10T15:46:51.886Z,35.61
2022-09-10T15:49:19.992Z,35.13
2022-09-10T15:51:48.048Z,35.59
2022-09-10T15:54:16.238Z,35.64
2022-09-10T15:56:44.236Z,35.73
2022-09-10T15:59:12.244Z,35.59
2022-09-10T16:01:42.334Z,35.98
2022-09-10T16:04:10.951Z,36.23
2022-09-10T16:06:40.656Z,36.23
2022-09-10T16:09:10.904Z,36.41
2022-09-10T16:11:41.183Z,36.43
2022-09-10T16:14:12.567Z,36.25
2022-09-10T16:16:45.775Z,36.07
2022-09-10T16:19:14.284Z,36.75
2022-09-10T16:21:43.457Z,36.73
2022-09-10T16:24:11.638Z,36.73
2022-09-10T16:26:41.570Z,37.25
2022-09-10T16:29:15.613Z,37.50
2022-09-10T16:31:46.070Z,37.93
2022-09-10T16:34:17.513Z,37.92
2022-09-10T16:36:48.781Z,38.30
2022-09-10T16:39:17.590Z,38.77
2022-09-10T16:41:46.787Z,38.97
2022-09-10T16:44:16.752Z,39.46
2022-09-10T16:46:46.625Z,39.34
2022-09-10T16:49:18.224Z,39.41
2022-09-10T16:51:49.031Z,39.63
2022-09-10T16:54:19.970Z,39.97
2022-09-10T16:56:50.206Z,40.23
2022-09-10T16:59:20.340Z,40.60
2022-09-10T17:01:51.777Z,41.01
2022-09-10T17:04:26.337Z,41.20
2022-09-10T17:06:57.414Z,41.76
2022-09-10T17:09:25.950Z,42.23
2022-09-10T17:11:54.062Z,42.83
2022-09-10T17:14:22.161Z,43.00
2022-09-10T17:16:52.169Z,43.09
2022-09-10T17:19:23.622Z,43.35
2022-09-10T17:21:55.227Z,42.48
2022-09-10T17:24:26.220Z,42.18
2022-09-10T17:26:55.431Z,41.62
2022-09-10T17:29:25.543Z,41.03
2022-09-10T17:31:57.433Z,40.94
2022-09-10T17:34:27.170Z,41.08
2022-09-10T17:36:55.274Z,41.06
2022-09-10T17:39:23.407Z,41.11
2022-09-10T17:41:55.216Z,41.12
2022-09-10T17:44:24.370Z,40.94
2022-09-10T17:46:52.389Z,41.08
2022-09-10T17:49:21.822Z,41.08
2022-09-10T17:51:49.834Z,41.00
2022-09-10T17:54:18.316Z,41.01
2022-09-10T17:56:46.281Z,41.56
2022-09-10T17:59:15.052Z,42.08
2022-09-10T18:01:43.531Z,42.39
2022-09-10T18:04:14.364Z,42.91
2022-09-10T18:06:46.788Z,43.16
2022-09-10T18:09:17.451Z,43.17
2022-09-10T18:11:45.832Z,43.21
2022-09-10T18:14:18.473Z,43.86
2022-09-10T18:16:47.272Z,43.87
2022-09-10T18:19:17.650Z,44.04
2022-09-10T18:21:48.287Z,44.04
2022-09-10T18:24:18.103Z,43.93
2022-09-10T18:26:48.176Z,44.19
2022-09-10T18:29:18.967Z,44.60
2022-09-10T18:31:49.158Z,44.71
2022-09-10T18:34:22.962Z,45.07
2022-09-10T18:36:55.788Z,45.11
2022-09-10T18:39:24.919Z,45.68
2022-09-10T18:41:53.687Z,46.37
2022-09-10T18:44:24.139Z,46.86
2022-09-10T18:46:53.790Z,47.42
2022-09-10T18:49:24.368Z,48.06
2022-09-10T18:51:55.461Z,48.43
2022-09-10T18:54:24.841Z,49.59
2022-09-10T18:56:53.979Z,50.15
2022-09-10T18:59:24.207Z,50.88
2022-09-10T19:01:55.890Z,51.37
2022-09-10T19:04:25.727Z,51.94
2022-09-10T19:06:55.542Z,52.59
2022-09-10T19:09:25.225Z,52.92
2022-09-10T19:11:54.922Z,53.03
2022-09-10T19:14:26.326Z,53.22
2022-09-10T19:16:56.388Z,53.36
2022-09-10T19:19:28.176Z,53.61
2022-09-10T19:21:59.493Z,53.96
2022-09-10T19:24:50.900Z,54.07
2022-09-10T19:27:15.930Z,54.12
2022-09-10T19:29:44.459Z,54.48
2022-09-10T19:32:13.011Z,54.46
2022-09-10T19:34:41.339Z,54.46
2022-09-10T19:37:11.025Z,54.40
2022-09-10T19:39:39.529Z,54.10
2022-09-10T19:42:08.070Z,54.15
2022-09-10T19:44:36.062Z,53.83
2022-09-10T19:47:04.476Z,53.74
2022-09-10T19:49:34.155Z,53.77
2022-09-10T19:52:04.338Z,53.51
2022-09-10T19:54:33.817Z,53.43
2022-09-10T19:57:01.870Z,53.39
2022-09-10T19:59:29.876Z,53.24
2022-09-10T20:01:58.012Z,53.23
2022-09-10T20:04:27.650Z,53.95
2022-09-10T20:06:55.752Z,54.35
2022-09-10T20:09:23.714Z,54.44
2022-09-10T20:11:53.339Z,54.75
2022-09-10T20:14:21.388Z,55.07
2022-09-10T20:16:49.676Z,55.72
2022-09-10T20:19:20.289Z,56.43
2022-09-10T20:21:48.390Z,56.51
2022-09-10T20:24:17.553Z,56.92
2022-09-10T20:26:46.630Z,57.73
2022-09-10T20:29:17.985Z,57.96
2022-09-10T20:31:47.561Z,58.27
2022-09-10T20:34:17.900Z,59.15
2022-09-10T20:36:52.179Z,58.87
2022-09-10T20:39:42.485Z,58.85
2022-09-10T20:42:34.955Z,58.58
2022-09-10T20:45:29.544Z,58.92
2022-09-10T20:48:14.311Z,58.87
2022-09-10T20:51:01.495Z,58.90
2022-09-10T20:53:54.290Z,59.44
2022-09-10T20:56:58.154Z,59.22
2022-09-10T20:59:56.060Z,59.13
2022-09-10T21:02:56.794Z,59.96
2022-09-10T21:05:37.562Z,59.71
2022-09-10T21:08:09.894Z,59.66
2022-09-10T21:10:40.405Z,59.26
2022-09-10T21:13:16.311Z,59.33
2022-09-10T21:15:51.131Z,60.68
2022-09-10T21:18:42.402Z,61.74
2022-09-10T21:21:16.343Z,61.76
2022-09-10T21:26:48.328Z,60.01
2022-09-10T21:29:25.830Z,60.53
2022-09-10T21:32:01.360Z,60.69
2022-09-10T21:34:34.152Z,61.06
2022-09-10T21:37:04.737Z,61.00
2022-09-10T21:39:33.382Z,61.36
2022-09-10T21:42:02.160Z,60.09
2022-09-10T21:44:32.250Z,59.88
2022-09-10T21:47:00.266Z,59.57
2022-09-10T21:49:28.302Z,59.77
2022-09-10T21:51:57.650Z,59.87
2022-09-10T21:54:26.112Z,60.58
2022-09-10T21:56:54.172Z,61.26
2022-09-10T21:59:22.260Z,61.27
2022-09-10T22:01:50.515Z,61.73
2022-09-10T22:04:22.445Z,61.94
2022-09-10T22:06:51.248Z,61.99
2022-09-10T22:09:21.369Z,61.91
2022-09-10T22:11:52.006Z,61.73
2022-09-10T22:14:22.041Z,62.21
2022-09-10T22:16:50.258Z,61.84
2022-09-10T22:19:20.246Z,61.46
2022-09-10T22:21:48.281Z,61.74
2022-09-10T22:24:18.221Z,61.45
2022-09-10T22:26:48.464Z,61.60
2022-09-10T22:29:18.829Z,61.75
2022-09-10T22:31:47.652Z,62.00
2022-09-10T22:34:17.460Z,62.20
2022-09-10T22:36:46.785Z,62.17
2022-09-10T22:39:17.644Z,62.15
2022-09-10T22:41:47.454Z,62.27
2022-09-10T22:44:17.731Z,62.42
2022-09-10T22:46:45.864Z,63.22
2022-09-10T22:49:16.024Z,63.33
2022-09-10T22:51:44.622Z,63.61
2022-09-10T22:54:12.796Z,64.65
2022-09-10T22:56:42.066Z,64.70
2022-09-10T22:59:14.659Z,65.06
2022-09-10T23:01:45.988Z,65.17
2022-09-10T23:04:14.449Z,65.59
2022-09-10T23:06:42.632Z,65.49
2022-09-10T23:09:13.643Z,65.67
2022-09-10T23:11:42.807Z,66.16
2022-09-10T23:14:15.548Z,66.13
2022-09-10T23:16:46.690Z,66.05
2022-09-10T23:19:16.733Z,65.87
2022-09-10T23:21:46.564Z,65.79
2022-09-10T23:24:16.359Z,65.61
2022-09-10T23:26:45.229Z,65.88
2022-09-10T23:29:17.328Z,66.25
2022-09-10T23:31:47.843Z,67.26
2022-09-10T23:34:18.291Z,68.07
2022-09-10T23:36:48.074Z,68.86
2022-09-10T23:39:18.713Z,69.54
2022-09-10T23:41:47.361Z,69.23
2022-09-10T23:44:17.411Z,69.45
2022-09-10T23:46:45.702Z,69.19
2022-09-10T23:49:14.039Z,69.81
2022-09-10T23:51:42.098Z,69.41
2022-09-10T23:54:11.239Z,69.33
2022-09-10T23:56:40.028Z,69.61
2022-09-10T23:59:08.676Z,69.51
